Terminal Aerodrome Forecast
Issued by NWS Albany, NY

Home | Current Version | Previous Version | Text Only | Print | Product List | Glossary On
Versions: 1 2 3 4 5 6 7 8 9 10 11 12 13 14 15 16 17
946
FTUS41 KALY 141722
TAFPOU
TAF
KPOU 141722Z 1418/1518 33007KT P6SM SKC
     FM150000 33003KT P6SM SKC
     FM151200 15005KT P6SM SCT200
     FM151500 18005KT P6SM BKN050 BKN150=

USA.gov is the U.S. government's official web portal to all federal, state and local government web resources and services.